createdAt,value
2018-08-19T00:00:48.753Z,25.30
2018-08-19T00:03:17.326Z,25.30
2018-08-19T00:05:45.876Z,25.20
2018-08-19T00:08:14.296Z,25.20
2018-08-19T00:11:00.583Z,25.20
2018-08-19T00:13:29.223Z,25.20
2018-08-19T00:15:57.691Z,25.10
2018-08-19T00:18:26.344Z,25.10
2018-08-19T00:20:54.760Z,25.10
2018-08-19T00:23:23.161Z,25.00
2018-08-19T00:25:51.527Z,25.00
2018-08-19T00:28:20.853Z,25.00
2018-08-19T00:30:49.216Z,24.90
2018-08-19T00:33:17.604Z,24.90
2018-08-19T00:35:45.892Z,24.90
2018-08-19T00:38:15.651Z,24.90
2018-08-19T00:40:44.346Z,24.80
2018-08-19T00:43:12.699Z,24.80
2018-08-19T00:45:41.098Z,24.80
2018-08-19T00:48:11.535Z,24.80
2018-08-19T00:50:40.377Z,24.80
2018-08-19T00:53:10.019Z,24.70
2018-08-19T00:55:43.844Z,24.70
2018-08-19T00:58:15.961Z,24.70
2018-08-19T01:00:44.278Z,24.60
2018-08-19T01:03:12.875Z,24.60
2018-08-19T01:05:41.372Z,24.60
2018-08-19T01:08:10.963Z,24.60
2018-08-19T01:10:39.868Z,24.50
2018-08-19T01:13:08.914Z,24.50
2018-08-19T01:15:37.348Z,24.50
2018-08-19T01:18:05.701Z,24.40
2018-08-19T01:20:34.091Z,24.40
2018-08-19T01:23:02.505Z,24.40
2018-08-19T01:25:30.987Z,24.30
2018-08-19T01:27:59.367Z,24.30
2018-08-19T01:30:27.799Z,24.30
2018-08-19T01:32:56.279Z,24.30
2018-08-19T01:35:30.163Z,24.20
2018-08-19T01:37:58.524Z,24.20
2018-08-19T01:40:26.922Z,24.20
2018-08-19T01:42:55.223Z,24.20
2018-08-19T01:45:23.542Z,24.10
2018-08-19T01:47:51.852Z,24.10
2018-08-19T01:50:20.191Z,24.10
2018-08-19T01:52:50.044Z,24.10
2018-08-19T01:55:19.000Z,24.10
2018-08-19T01:57:50.806Z,24.10
2018-08-19T02:00:19.517Z,24.10
2018-08-19T02:02:57.444Z,24.00
2018-08-19T02:05:26.136Z,24.00
2018-08-19T02:07:57.177Z,23.90
2018-08-19T02:10:26.145Z,23.90
2018-08-19T02:12:55.722Z,23.90
2018-08-19T02:15:25.280Z,23.80
2018-08-19T02:17:56.503Z,23.80
2018-08-19T02:20:26.861Z,23.80
2018-08-19T02:22:58.411Z,23.70
2018-08-19T02:25:28.015Z,23.70
2018-08-19T02:27:56.391Z,23.70
2018-08-19T02:30:24.765Z,23.60
2018-08-19T02:32:54.597Z,23.60
2018-08-19T02:35:23.007Z,23.10
2018-08-19T02:37:51.301Z,23.60
2018-08-19T02:40:24.913Z,23.50
2018-08-19T02:42:53.260Z,23.50
2018-08-19T02:45:21.643Z,23.50
2018-08-19T02:47:49.999Z,23.50
2018-08-19T02:50:18.354Z,23.50
2018-08-19T02:52:46.721Z,23.40
2018-08-19T02:55:15.162Z,23.40
2018-08-19T02:57:43.449Z,23.40
2018-08-19T03:00:12.198Z,23.40
2018-08-19T03:02:41.719Z,23.40
2018-08-19T03:05:11.434Z,23.30
2018-08-19T03:07:39.957Z,23.30
2018-08-19T03:10:12.267Z,23.30
2018-08-19T03:12:41.087Z,23.30
2018-08-19T03:15:10.704Z,23.30
2018-08-19T03:17:39.635Z,23.30
2018-08-19T03:20:10.502Z,23.20
2018-08-19T03:22:38.843Z,23.20
2018-08-19T03:25:07.983Z,23.20
2018-08-19T03:27:36.383Z,23.20
2018-08-19T03:30:09.185Z,23.20
2018-08-19T03:32:40.566Z,23.20
2018-08-19T03:35:13.151Z,23.20
2018-08-19T03:37:41.494Z,23.20
2018-08-19T03:40:09.786Z,23.10
2018-08-19T03:42:38.229Z,23.10
2018-08-19T03:45:12.074Z,23.10
2018-08-19T03:47:40.379Z,23.10
2018-08-19T03:50:14.209Z,23.00
2018-08-19T03:52:42.920Z,23.00
2018-08-19T03:55:20.840Z,23.00
2018-08-19T03:57:49.892Z,23.00
2018-08-19T04:00:19.108Z,22.90
2018-08-19T04:02:47.576Z,22.90
2018-08-19T04:05:15.860Z,22.90
2018-08-19T04:07:44.570Z,22.80
2018-08-19T04:10:13.274Z,22.90
2018-08-19T04:12:41.696Z,22.80
2018-08-19T04:15:10.776Z,22.80
2018-08-19T04:17:39.351Z,22.80
2018-08-19T04:20:07.720Z,22.70
2018-08-19T04:22:36.159Z,22.70
2018-08-19T04:25:04.567Z,22.60
2018-08-19T04:27:32.931Z,22.60
2018-08-19T04:30:01.376Z,22.60
2018-08-19T04:32:30.946Z,22.60
2018-08-19T04:34:59.946Z,22.60
2018-08-19T04:37:28.788Z,22.60
2018-08-19T04:39:57.856Z,22.60
2018-08-19T04:42:26.260Z,22.60
2018-08-19T04:44:54.788Z,22.50
2018-08-19T04:47:31.510Z,22.50
2018-08-19T04:49:59.925Z,22.50
2018-08-19T04:52:28.286Z,22.60
2018-08-19T04:54:57.452Z,22.60
2018-08-19T04:57:25.979Z,22.50
2018-08-19T04:59:54.392Z,22.50
2018-08-19T05:02:23.351Z,22.50
2018-08-19T05:04:51.506Z,22.50
2018-08-19T05:07:19.850Z,22.50
2018-08-19T05:09:48.182Z,22.50
2018-08-19T05:12:16.558Z,22.50
2018-08-19T05:14:44.849Z,22.50
2018-08-19T05:17:13.960Z,22.50
2018-08-19T05:19:42.344Z,22.50
2018-08-19T05:22:12.916Z,22.60
2018-08-19T05:24:41.251Z,22.50
2018-08-19T05:27:10.020Z,22.60
2018-08-19T05:29:38.540Z,22.60
2018-08-19T05:32:11.051Z,22.60
2018-08-19T05:34:41.148Z,22.60
2018-08-19T05:37:09.430Z,22.70
2018-08-19T05:39:39.694Z,22.70
2018-08-19T05:42:11.416Z,22.70
2018-08-19T05:44:40.562Z,22.80
2018-08-19T05:47:13.460Z,22.80
2018-08-19T05:49:43.082Z,22.80
2018-08-19T05:52:18.987Z,22.90
2018-08-19T05:54:54.998Z,23.00
2018-08-19T05:57:23.321Z,23.00
2018-08-19T05:59:52.783Z,23.00
2018-08-19T06:02:32.477Z,23.10
2018-08-19T06:05:02.192Z,23.20
2018-08-19T06:07:30.863Z,23.30
2018-08-19T06:09:59.266Z,23.30
2018-08-19T06:12:27.696Z,23.40
2018-08-19T06:14:58.639Z,23.50
2018-08-19T06:17:27.031Z,23.50
2018-08-19T06:19:55.696Z,23.60
2018-08-19T06:22:42.571Z,23.70
2018-08-19T06:25:11.981Z,23.80
2018-08-19T06:27:48.607Z,23.80
2018-08-19T06:30:17.884Z,23.80
2018-08-19T06:32:46.458Z,23.90
2018-08-19T06:35:15.175Z,24.00
2018-08-19T06:37:43.455Z,24.00
2018-08-19T06:40:15.024Z,24.10
2018-08-19T06:42:43.500Z,24.10
2018-08-19T06:45:12.522Z,24.20
2018-08-19T06:47:40.897Z,24.20
2018-08-19T06:50:18.341Z,24.30
2018-08-19T06:52:46.818Z,24.30
2018-08-19T06:55:15.720Z,24.30
2018-08-19T06:57:44.252Z,24.40
2018-08-19T07:00:31.668Z,24.50
2018-08-19T07:03:02.603Z,24.50
2018-08-19T07:05:31.602Z,24.60
2018-08-19T07:08:00.612Z,24.70
2018-08-19T07:10:35.486Z,24.70
2018-08-19T07:13:14.636Z,24.80
2018-08-19T07:15:44.062Z,24.90
2018-08-19T07:18:14.175Z,24.90
2018-08-19T07:20:43.280Z,25.00
2018-08-19T07:23:11.962Z,25.10
2018-08-19T07:25:42.150Z,25.20
2018-08-19T07:28:11.409Z,25.30
2018-08-19T07:30:40.236Z,25.40
2018-08-19T07:33:08.731Z,25.50
2018-08-19T07:35:37.172Z,25.60
2018-08-19T07:38:05.566Z,25.70
2018-08-19T07:40:34.087Z,25.80
2018-08-19T07:43:02.510Z,26.00
2018-08-19T07:45:31.070Z,26.10
2018-08-19T07:47:59.540Z,26.20
2018-08-19T07:50:27.914Z,26.30
2018-08-19T07:52:56.403Z,26.40
2018-08-19T07:55:24.891Z,26.50
2018-08-19T07:57:53.305Z,26.70
2018-08-19T08:00:27.188Z,26.80
2018-08-19T08:02:55.509Z,26.90
2018-08-19T08:05:24.634Z,27.00
2018-08-19T08:07:53.046Z,27.10
2018-08-19T08:10:21.362Z,27.30
2018-08-19T08:12:54.883Z,27.40
2018-08-19T08:15:23.225Z,27.60
2018-08-19T08:17:51.549Z,27.70
2018-08-19T08:20:19.887Z,27.80
2018-08-19T08:22:48.222Z,27.90
2018-08-19T08:25:16.578Z,28.00
2018-08-19T08:27:44.912Z,28.10
2018-08-19T08:30:13.396Z,28.30
2018-08-19T08:32:45.495Z,28.40
2018-08-19T08:35:13.942Z,28.60
2018-08-19T08:37:42.845Z,28.80
2018-08-19T08:40:11.784Z,29.00
2018-08-19T08:42:42.162Z,29.20
2018-08-19T08:45:11.969Z,29.40
2018-08-19T08:47:40.445Z,29.60
2018-08-19T08:50:10.031Z,30.00
2018-08-19T08:52:38.367Z,30.60
2018-08-19T08:55:09.195Z,31.40
2018-08-19T08:57:38.488Z,32.30
2018-08-19T09:00:09.371Z,33.30
2018-08-19T09:02:37.722Z,34.40
2018-08-19T09:05:08.236Z,35.60
2018-08-19T09:07:36.627Z,36.90
2018-08-19T09:10:05.336Z,38.20
2018-08-19T09:12:50.347Z,39.20
2018-08-19T09:15:18.821Z,40.30
2018-08-19T09:17:47.163Z,41.50
2018-08-19T09:20:15.468Z,42.50
2018-08-19T09:22:44.643Z,43.40
2018-08-19T09:25:13.057Z,44.20
2018-08-19T09:27:42.021Z,45.10
2018-08-19T09:30:13.695Z,45.80
2018-08-19T09:32:55.049Z,46.50
2018-08-19T09:35:23.344Z,47.00
2018-08-19T09:37:57.484Z,47.40
2018-08-19T09:40:27.553Z,47.60
2018-08-19T09:42:56.394Z,48.00
2018-08-19T09:45:26.147Z,48.30
2018-08-19T09:47:54.898Z,48.60
2018-08-19T09:50:23.220Z,48.70
2018-08-19T09:52:51.594Z,48.80
2018-08-19T09:55:27.273Z,48.90
2018-08-19T09:57:56.960Z,49.10
2018-08-19T10:00:26.415Z,49.30
2018-08-19T10:02:54.799Z,49.50
2018-08-19T10:05:24.768Z,49.60
2018-08-19T10:07:55.084Z,49.70
2018-08-19T10:10:24.226Z,49.80
2018-08-19T10:12:52.738Z,50.00
2018-08-19T10:15:21.557Z,50.20
2018-08-19T10:17:50.023Z,50.10
2018-08-19T10:20:18.475Z,50.20
2018-08-19T10:22:46.867Z,49.90
2018-08-19T10:25:20.363Z,49.60
2018-08-19T10:30:29.245Z,49.70
2018-08-19T10:33:04.382Z,49.90
2018-08-19T10:35:34.032Z,50.10
2018-08-19T10:38:03.188Z,50.40
2018-08-19T10:40:31.827Z,50.70
2018-08-19T10:43:03.850Z,50.80
2018-08-19T10:45:33.180Z,50.70
2018-08-19T10:48:01.897Z,50.70
2018-08-19T10:50:30.550Z,50.80
2018-08-19T10:52:59.018Z,51.00
2018-08-19T10:55:27.647Z,51.00
2018-08-19T10:57:56.144Z,51.20
2018-08-19T11:00:31.371Z,51.30
2018-08-19T11:03:08.803Z,51.30
2018-08-19T11:05:40.024Z,51.40
2018-08-19T11:08:08.995Z,51.20
2018-08-19T11:10:37.415Z,51.30
2018-08-19T11:13:06.179Z,51.50
2018-08-19T11:15:40.335Z,51.80
2018-08-19T11:18:25.023Z,51.60
2018-08-19T11:20:57.454Z,51.60
2018-08-19T11:23:27.035Z,51.20
2018-08-19T11:25:56.022Z,51.20
2018-08-19T11:28:43.419Z,51.50
2018-08-19T11:31:20.130Z,51.70
2018-08-19T11:33:48.888Z,52.10
2018-08-19T11:36:17.411Z,52.30
2018-08-19T11:38:52.540Z,52.30
2018-08-19T11:41:21.204Z,52.40
2018-08-19T11:43:50.494Z,52.50
2018-08-19T11:46:18.902Z,52.70
2018-08-19T11:48:52.163Z,52.90
2018-08-19T11:51:20.496Z,52.90
2018-08-19T11:53:48.876Z,53.00
2018-08-19T11:56:17.318Z,53.00
2018-08-19T11:58:46.961Z,53.10
2018-08-19T12:01:19.890Z,53.30
2018-08-19T12:03:56.444Z,53.50
2018-08-19T12:06:27.098Z,53.70
2018-08-19T12:08:57.613Z,53.90
2018-08-19T12:11:29.615Z,53.90
2018-08-19T12:13:58.148Z,53.80
2018-08-19T12:16:27.464Z,54.10
2018-08-19T12:18:59.957Z,54.20
2018-08-19T12:21:29.974Z,54.40
2018-08-19T12:24:14.722Z,54.70
2018-08-19T12:26:43.535Z,54.80
2018-08-19T12:29:12.261Z,54.60
2018-08-19T12:31:40.567Z,54.00
2018-08-19T12:34:09.003Z,53.80
2018-08-19T12:36:37.405Z,53.80
2018-08-19T12:39:08.580Z,53.70
2018-08-19T12:41:44.190Z,53.70
2018-08-19T12:44:12.627Z,54.00
2018-08-19T12:46:46.026Z,54.40
2018-08-19T12:49:14.367Z,54.70
2018-08-19T12:51:42.748Z,55.00
2018-08-19T12:54:11.062Z,54.50
2018-08-19T12:56:39.382Z,54.10
2018-08-19T12:59:07.710Z,54.00
2018-08-19T13:01:36.162Z,53.80
2018-08-19T13:04:04.512Z,53.40
2018-08-19T13:06:32.932Z,53.30
2018-08-19T13:09:01.237Z,53.30
2018-08-19T13:11:29.729Z,52.70
2018-08-19T13:13:58.121Z,52.30
2018-08-19T13:16:26.563Z,52.20
2018-08-19T13:18:54.860Z,51.60
2018-08-19T13:21:25.558Z,51.40
2018-08-19T13:23:53.840Z,50.90
2018-08-19T13:26:22.376Z,50.90
2018-08-19T13:28:54.858Z,50.90
2018-08-19T13:31:28.373Z,50.90
2018-08-19T13:33:57.803Z,51.20
2018-08-19T13:36:26.368Z,51.30
2018-08-19T13:38:54.940Z,51.40
2018-08-19T13:41:23.287Z,51.60
2018-08-19T13:43:51.614Z,51.70
2018-08-19T13:46:19.987Z,51.80
2018-08-19T13:48:48.351Z,52.00
2018-08-19T13:51:16.706Z,52.10
2018-08-19T13:53:44.988Z,52.10
2018-08-19T13:56:13.328Z,52.10
2018-08-19T13:58:41.704Z,51.60
2018-08-19T14:01:10.192Z,51.70
2018-08-19T14:03:38.680Z,51.70
2018-08-19T14:06:07.673Z,52.00
2018-08-19T14:08:35.966Z,52.10
2018-08-19T14:11:04.488Z,52.40
2018-08-19T14:13:32.999Z,52.30
2018-08-19T14:16:01.587Z,52.10
2018-08-19T14:18:30.219Z,51.70
2018-08-19T14:20:58.589Z,51.60
2018-08-19T14:23:27.029Z,51.20
2018-08-19T14:25:55.449Z,51.10
2018-08-19T14:28:23.817Z,50.50
2018-08-19T14:30:52.745Z,49.60
2018-08-19T14:33:21.150Z,48.30
2018-08-19T14:35:49.610Z,46.80
2018-08-19T14:38:17.987Z,45.50
2018-08-19T14:40:46.643Z,44.20
2018-08-19T14:43:15.032Z,42.80
2018-08-19T14:45:43.326Z,41.90
2018-08-19T14:48:12.059Z,40.70
2018-08-19T14:50:42.599Z,39.90
2018-08-19T14:53:10.982Z,39.20
2018-08-19T14:55:39.439Z,38.50
2018-08-19T14:58:07.908Z,37.90
2018-08-19T15:00:36.299Z,37.50
2018-08-19T15:03:04.669Z,37.10
2018-08-19T15:05:33.040Z,36.60
2018-08-19T15:08:06.717Z,36.10
2018-08-19T15:10:35.138Z,35.90
2018-08-19T15:13:03.507Z,35.80
2018-08-19T15:15:32.015Z,35.60
2018-08-19T15:18:01.402Z,35.40
2018-08-19T15:20:34.160Z,35.20
2018-08-19T15:23:18.378Z,35.00
2018-08-19T15:25:46.994Z,34.80
2018-08-19T15:28:15.889Z,34.70
2018-08-19T15:30:44.225Z,34.40
2018-08-19T15:33:13.783Z,34.20
2018-08-19T15:35:42.741Z,34.00
2018-08-19T15:38:11.581Z,33.80
2018-08-19T15:40:48.100Z,33.60
2018-08-19T15:43:16.604Z,33.50
2018-08-19T15:45:45.386Z,33.50
2018-08-19T15:48:13.742Z,33.60
2018-08-19T15:50:42.092Z,33.60
2018-08-19T15:53:10.927Z,33.50
2018-08-19T15:55:39.723Z,33.50
2018-08-19T15:58:08.485Z,33.50
2018-08-19T16:00:39.198Z,33.40
2018-08-19T16:03:08.602Z,33.30
2018-08-19T16:05:36.968Z,33.20
2018-08-19T16:08:06.227Z,33.20
2018-08-19T16:10:34.970Z,33.10
2018-08-19T16:13:07.211Z,33.10
2018-08-19T16:15:35.579Z,33.10
2018-08-19T16:18:04.243Z,33.10
2018-08-19T16:20:32.650Z,33.10
2018-08-19T16:23:01.166Z,33.00
2018-08-19T16:25:29.907Z,32.90
2018-08-19T16:27:58.411Z,32.80
2018-08-19T16:30:27.402Z,32.80
2018-08-19T16:32:55.752Z,32.70
2018-08-19T16:35:24.072Z,32.60
2018-08-19T16:37:52.380Z,32.60
2018-08-19T16:40:20.950Z,32.60
2018-08-19T16:42:49.342Z,32.50
2018-08-19T16:45:17.691Z,32.40
2018-08-19T16:47:46.157Z,32.30
2018-08-19T16:50:14.653Z,32.20
2018-08-19T16:52:43.098Z,32.00
2018-08-19T16:55:11.486Z,31.80
2018-08-19T16:57:39.886Z,31.80
2018-08-19T17:00:09.594Z,31.80
2018-08-19T17:02:38.246Z,31.80
2018-08-19T17:05:26.170Z,31.70
2018-08-19T17:07:54.447Z,31.60
2018-08-19T17:10:23.067Z,31.60
2018-08-19T17:12:51.974Z,31.50
2018-08-19T17:15:20.383Z,31.50
2018-08-19T17:17:48.952Z,31.30
2018-08-19T17:20:17.400Z,31.30
2018-08-19T17:22:45.743Z,31.20
2018-08-19T17:25:14.069Z,31.20
2018-08-19T17:27:42.555Z,31.20
2018-08-19T17:30:16.258Z,31.20
2018-08-19T17:32:44.784Z,31.20
2018-08-19T17:35:13.522Z,31.10
2018-08-19T17:37:41.928Z,31.10
2018-08-19T17:40:10.421Z,31.00
2018-08-19T17:42:38.845Z,31.00
2018-08-19T17:45:07.383Z,30.90
2018-08-19T17:47:36.250Z,30.90
2018-08-19T17:50:05.161Z,30.90
2018-08-19T17:52:33.679Z,30.80
2018-08-19T17:55:02.270Z,30.80
2018-08-19T17:57:30.722Z,30.70
2018-08-19T17:59:59.227Z,30.70
2018-08-19T18:02:27.955Z,30.70
2018-08-19T18:04:56.540Z,30.70
2018-08-19T18:07:28.480Z,30.70
2018-08-19T18:09:59.576Z,30.70
2018-08-19T18:12:27.898Z,30.70
2018-08-19T18:14:56.965Z,30.80
2018-08-19T18:17:25.416Z,30.80
2018-08-19T18:19:53.727Z,30.80
2018-08-19T18:22:22.380Z,30.80
2018-08-19T18:25:01.019Z,30.80
2018-08-19T18:27:29.455Z,30.80
2018-08-19T18:29:57.925Z,30.80
2018-08-19T18:32:26.325Z,30.80
2018-08-19T18:34:54.687Z,30.70
2018-08-19T18:37:23.092Z,30.70
2018-08-19T18:39:51.460Z,30.70
2018-08-19T18:42:33.703Z,30.70
2018-08-19T18:45:06.330Z,30.60
2018-08-19T18:47:34.911Z,30.60
2018-08-19T18:50:07.800Z,30.60
2018-08-19T18:52:36.250Z,30.50
2018-08-19T18:55:05.119Z,30.50
2018-08-19T18:57:33.488Z,30.50
2018-08-19T19:00:01.969Z,30.40
2018-08-19T19:02:30.390Z,30.30
2018-08-19T19:04:58.958Z,30.30
2018-08-19T19:07:27.621Z,30.20
2018-08-19T19:09:55.963Z,30.20
2018-08-19T19:12:24.271Z,30.20
2018-08-19T19:14:52.736Z,30.20
2018-08-19T19:17:21.060Z,30.10
2018-08-19T19:19:50.236Z,30.10
2018-08-19T19:22:18.572Z,30.10
2018-08-19T19:24:46.971Z,30.00
2018-08-19T19:27:15.738Z,30.00
2018-08-19T19:29:49.598Z,30.00
2018-08-19T19:32:22.869Z,29.90
2018-08-19T19:34:51.294Z,29.90
2018-08-19T19:37:19.718Z,29.90
2018-08-19T19:39:54.904Z,29.80
2018-08-19T19:42:23.457Z,29.80
2018-08-19T19:44:52.864Z,29.80
2018-08-19T19:47:21.381Z,29.70
2018-08-19T19:49:54.293Z,29.70
2018-08-19T19:52:23.087Z,29.60
2018-08-19T19:54:51.414Z,29.60
2018-08-19T19:57:19.760Z,29.50
2018-08-19T19:59:48.103Z,29.50
2018-08-19T20:02:22.667Z,29.50
2018-08-19T20:04:51.269Z,29.60
2018-08-19T20:07:19.673Z,29.70
2018-08-19T20:09:48.119Z,29.70
2018-08-19T20:12:29.293Z,29.80
2018-08-19T20:15:00.470Z,29.90
2018-08-19T20:17:29.994Z,29.90
2018-08-19T20:19:59.291Z,30.00
2018-08-19T20:22:27.654Z,30.00
2018-08-19T20:24:56.300Z,30.00
2018-08-19T20:27:24.722Z,30.10
2018-08-19T20:29:54.494Z,30.10
2018-08-19T20:32:23.076Z,30.10
2018-08-19T20:34:51.660Z,30.10
2018-08-19T20:37:22.638Z,30.10
2018-08-19T20:39:51.240Z,30.10
2018-08-19T20:42:19.627Z,30.20
2018-08-19T20:44:48.006Z,30.20
2018-08-19T20:47:16.612Z,30.10
2018-08-19T20:49:47.332Z,30.10
2018-08-19T20:52:16.020Z,30.10
2018-08-19T20:54:44.344Z,30.10
2018-08-19T20:57:12.667Z,30.10
2018-08-19T20:59:40.979Z,30.10
2018-08-19T21:02:09.606Z,30.10
2018-08-19T21:04:37.951Z,30.10
2018-08-19T21:07:06.586Z,30.10
2018-08-19T21:09:36.019Z,30.10
2018-08-19T21:12:04.452Z,30.00
2018-08-19T21:14:32.859Z,30.10
2018-08-19T21:17:03.147Z,30.10
2018-08-19T21:19:31.493Z,30.00
2018-08-19T21:21:59.883Z,30.00
2018-08-19T21:24:28.219Z,30.00
2018-08-19T21:26:59.997Z,30.00
2018-08-19T21:29:28.794Z,30.00
2018-08-19T21:31:57.160Z,29.90
2018-08-19T21:34:25.554Z,29.90
2018-08-19T21:36:53.883Z,29.90
2018-08-19T21:39:22.288Z,29.80
2018-08-19T21:41:51.866Z,29.70
2018-08-19T21:44:20.594Z,29.50
2018-08-19T21:46:49.458Z,29.40
2018-08-19T21:49:17.870Z,29.20
2018-08-19T21:51:46.326Z,29.00
2018-08-19T21:54:15.837Z,28.80
2018-08-19T21:56:44.174Z,28.60
2018-08-19T21:59:17.790Z,28.40
2018-08-19T22:01:56.653Z,28.30
2018-08-19T22:04:25.247Z,28.10
2018-08-19T22:06:53.642Z,28.00
2018-08-19T22:09:35.895Z,27.90
2018-08-19T22:12:05.036Z,27.90
2018-08-19T22:14:33.618Z,27.80
2018-08-19T22:17:08.104Z,27.80
2018-08-19T22:19:36.575Z,27.70
2018-08-19T22:22:05.106Z,27.70
2018-08-19T22:24:33.618Z,27.70
2018-08-19T22:27:07.337Z,27.60
2018-08-19T22:29:35.703Z,27.60
2018-08-19T22:32:04.138Z,27.50
2018-08-19T22:34:32.565Z,27.40
2018-08-19T22:37:01.072Z,27.30
2018-08-19T22:39:29.439Z,27.30
2018-08-19T22:41:57.871Z,27.30
2018-08-19T22:44:26.161Z,27.30
2018-08-19T22:46:54.547Z,27.30
2018-08-19T22:49:23.799Z,27.30
2018-08-19T22:51:52.135Z,27.30
2018-08-19T22:54:20.490Z,27.20
2018-08-19T22:56:48.853Z,27.20
2018-08-19T22:59:17.482Z,27.20
2018-08-19T23:01:48.183Z,27.20
2018-08-19T23:04:16.564Z,27.10
2018-08-19T23:06:45.631Z,27.10
2018-08-19T23:09:13.926Z,27.00
2018-08-19T23:11:47.053Z,27.00
2018-08-19T23:14:26.794Z,27.00
2018-08-19T23:16:55.289Z,27.00
2018-08-19T23:19:23.774Z,27.00
2018-08-19T23:21:52.124Z,26.90
2018-08-19T23:24:20.431Z,26.90
2018-08-19T23:26:48.882Z,26.90
2018-08-19T23:29:17.354Z,26.90
2018-08-19T23:31:45.871Z,26.90
2018-08-19T23:34:14.243Z,26.90
2018-08-19T23:36:42.685Z,26.90
2018-08-19T23:39:11.147Z,26.90
2018-08-19T23:41:39.474Z,26.90
2018-08-19T23:44:08.043Z,26.90
2018-08-19T23:46:36.555Z,26.80
2018-08-19T23:49:04.960Z,26.80
2018-08-19T23:51:33.333Z,26.80
2018-08-19T23:54:02.591Z,26.70
2018-08-19T23:56:31.434Z,26.70
2018-08-19T23:59:00.371Z,26.70
